createdAt,value
2023-08-29T00:03:07.730Z,81.87
2023-08-29T00:08:10.417Z,80.95
2023-08-29T00:13:13.286Z,82.96
2023-08-29T00:18:15.508Z,87.26
2023-08-29T00:23:18.253Z,86.04
2023-08-29T00:28:20.995Z,81.67
2023-08-29T00:33:23.812Z,84.90
2023-08-29T00:38:26.502Z,88.31
2023-08-29T00:43:29.540Z,89.49
2023-08-29T00:48:33.089Z,94.83
2023-08-29T00:53:38.625Z,82.10
2023-08-29T00:58:41.422Z,88.95
2023-08-29T01:03:44.516Z,86.80
2023-08-29T01:08:47.285Z,89.58
2023-08-29T01:14:24.442Z,88.62
2023-08-29T01:19:27.904Z,80.49
2023-08-29T01:25:08.113Z,82.48
2023-08-29T01:30:12.044Z,55.34
2023-08-29T01:35:16.906Z,48.85
2023-08-29T01:40:19.579Z,49.91
2023-08-29T01:45:22.335Z,54.16
2023-08-29T01:50:26.098Z,59.41
2023-08-29T01:55:30.380Z,59.43
2023-08-29T02:00:33.390Z,56.03
2023-08-29T02:05:36.151Z,55.32
2023-08-29T02:10:38.831Z,60.41
2023-08-29T02:15:41.403Z,57.38
2023-08-29T02:20:44.575Z,61.66
2023-08-29T02:25:46.776Z,68.14
2023-08-29T02:30:49.396Z,74.13
2023-08-29T02:35:52.185Z,73.37
2023-08-29T02:40:55.032Z,73.00
2023-08-29T02:45:58.138Z,80.85
2023-08-29T02:51:00.880Z,80.31
2023-08-29T02:56:03.657Z,91.69
2023-08-29T03:01:11.175Z,94.83
2023-08-29T03:06:13.892Z,95.34
2023-08-29T03:11:16.729Z,98.49
2023-08-29T03:16:20.637Z,100.00
2023-08-29T03:21:23.323Z,96.73
2023-08-29T03:26:26.203Z,100.00
2023-08-29T03:31:29.078Z,100.00
2023-08-29T03:36:31.819Z,100.00
2023-08-29T03:41:34.586Z,100.00
2023-08-29T03:46:37.587Z,100.00
2023-08-29T03:51:40.345Z,100.00
2023-08-29T03:56:44.872Z,95.34
2023-08-29T04:01:47.806Z,97.84
2023-08-29T04:06:50.671Z,100.00
2023-08-29T04:11:53.333Z,96.89
2023-08-29T04:16:57.207Z,96.59
2023-08-29T04:22:00.340Z,100.00
2023-08-29T04:27:02.760Z,100.00
2023-08-29T04:32:06.050Z,100.00
2023-08-29T04:37:08.932Z,100.00
2023-08-29T04:42:11.979Z,100.00
2023-08-29T04:47:14.696Z,100.00
2023-08-29T04:52:17.442Z,100.00
2023-08-29T04:57:20.240Z,100.00
2023-08-29T05:02:23.664Z,100.00
2023-08-29T05:07:27.393Z,100.00
2023-08-29T05:12:30.158Z,100.00
2023-08-29T05:17:32.396Z,100.00
2023-08-29T05:22:35.306Z,84.05
2023-08-29T05:27:38.428Z,55.72
2023-08-29T05:32:41.132Z,47.05
2023-08-29T05:37:43.363Z,42.16
2023-08-29T05:42:46.019Z,36.77
2023-08-29T05:47:48.617Z,30.45
2023-08-29T05:52:51.452Z,27.25
2023-08-29T05:57:54.152Z,26.20
2023-08-29T06:02:56.927Z,23.93
2023-08-29T06:08:16.863Z,22.04
2023-08-29T06:13:22.245Z,21.36
2023-08-29T06:18:25.540Z,20.86
2023-08-29T06:23:28.385Z,20.87
2023-08-29T06:28:32.119Z,22.31
2023-08-29T06:33:35.851Z,20.77
2023-08-29T06:38:40.513Z,21.62
2023-08-29T06:43:42.908Z,20.21
2023-08-29T06:48:45.581Z,18.81
2023-08-29T06:53:47.802Z,20.01
2023-08-29T06:58:50.830Z,19.62
2023-08-29T07:03:54.569Z,20.49
2023-08-29T07:08:57.348Z,21.21
2023-08-29T07:14:00.098Z,21.71
2023-08-29T07:19:03.156Z,22.09
2023-08-29T07:24:06.148Z,23.72
2023-08-29T07:29:08.378Z,24.20
2023-08-29T07:34:13.088Z,24.86
2023-08-29T07:39:19.277Z,24.74
2023-08-29T07:44:21.651Z,25.32
2023-08-29T07:49:24.304Z,25.17
2023-08-29T07:54:26.602Z,25.60
2023-08-29T07:59:29.448Z,25.68
2023-08-29T08:04:32.321Z,26.96
2023-08-29T08:09:34.974Z,26.51
2023-08-29T08:14:37.661Z,27.38
2023-08-29T08:19:40.455Z,26.11
2023-08-29T08:24:42.844Z,26.19
2023-08-29T08:29:45.664Z,27.35
2023-08-29T08:34:48.441Z,27.50
2023-08-29T08:39:50.812Z,27.12
2023-08-29T08:44:53.920Z,27.72
2023-08-29T08:49:56.653Z,27.25
2023-08-29T08:54:59.412Z,26.37
2023-08-29T09:00:01.614Z,26.53
2023-08-29T09:05:04.903Z,27.20
2023-08-29T09:10:12.043Z,27.05
2023-08-29T09:15:17.974Z,25.92
2023-08-29T09:20:21.568Z,26.64
2023-08-29T09:25:27.932Z,26.45
2023-08-29T09:30:30.925Z,27.04
2023-08-29T09:35:35.558Z,27.69
2023-08-29T09:40:51.623Z,27.53
2023-08-29T09:45:55.270Z,27.42
2023-08-29T09:51:00.320Z,27.49
2023-08-29T09:56:11.319Z,28.17
2023-08-29T10:01:15.000Z,28.73
2023-08-29T10:06:19.884Z,28.32
2023-08-29T10:11:23.433Z,28.27
2023-08-29T10:16:27.474Z,28.33
2023-08-29T10:21:31.279Z,29.64
2023-08-29T10:26:35.099Z,28.96
2023-08-29T10:31:38.120Z,28.16
2023-08-29T10:36:41.059Z,28.65
2023-08-29T10:41:48.154Z,28.55
2023-08-29T10:46:54.384Z,28.03
2023-08-29T10:52:20.014Z,29.06
2023-08-29T10:57:30.844Z,28.67
2023-08-29T11:02:33.313Z,27.92
2023-08-29T11:07:36.437Z,27.86
2023-08-29T11:13:09.476Z,28.54
2023-08-29T11:18:30.183Z,28.54
2023-08-29T11:23:36.405Z,29.25
2023-08-29T11:28:44.275Z,29.05
2023-08-29T11:33:48.236Z,28.76
2023-08-29T11:38:52.715Z,27.77
2023-08-29T11:44:26.419Z,28.32
2023-08-29T11:49:20.610Z,27.80
2023-08-29T11:54:47.130Z,27.34
2023-08-29T11:59:53.620Z,28.06
2023-08-29T12:04:58.220Z,28.81
2023-08-29T12:10:11.904Z,30.40
2023-08-29T12:15:24.227Z,30.00
2023-08-29T12:20:35.168Z,30.57
2023-08-29T12:25:37.631Z,30.74
2023-08-29T12:30:40.458Z,30.26
2023-08-29T12:35:42.676Z,30.37
2023-08-29T12:40:45.598Z,30.77
2023-08-29T12:45:58.361Z,30.35
2023-08-29T12:51:03.705Z,30.95
2023-08-29T12:56:08.171Z,30.95
2023-08-29T13:01:12.300Z,30.13
2023-08-29T13:06:33.454Z,30.88
2023-08-29T13:11:36.157Z,29.77
2023-08-29T13:16:39.047Z,30.57
2023-08-29T13:21:41.736Z,30.68
2023-08-29T13:26:43.894Z,30.88
2023-08-29T13:31:47.187Z,30.27
2023-08-29T13:36:50.108Z,31.07
2023-08-29T13:41:52.862Z,31.03
2023-08-29T13:46:55.504Z,30.42
2023-08-29T13:52:00.871Z,30.68
2023-08-29T13:57:06.578Z,31.56
2023-08-29T14:02:11.131Z,32.00
2023-08-29T14:07:13.910Z,32.21
2023-08-29T14:12:16.654Z,32.20
2023-08-29T14:17:19.827Z,32.47
2023-08-29T14:22:22.010Z,32.55
2023-08-29T14:27:24.715Z,32.33
2023-08-29T14:32:27.535Z,32.68
2023-08-29T14:37:29.898Z,31.87
2023-08-29T14:42:32.719Z,31.60
2023-08-29T14:47:36.309Z,32.69
2023-08-29T14:52:39.682Z,33.17
2023-08-29T14:57:42.311Z,32.80
2023-08-29T15:02:46.036Z,33.32
2023-08-29T15:07:48.965Z,33.25
2023-08-29T15:12:51.717Z,36.97
2023-08-29T15:17:54.523Z,38.12
2023-08-29T15:22:57.280Z,38.72
2023-08-29T15:27:59.917Z,39.83
2023-08-29T15:33:02.846Z,41.94
2023-08-29T15:38:05.788Z,44.54
2023-08-29T15:43:08.399Z,41.01
2023-08-29T15:48:11.164Z,45.35
2023-08-29T15:53:15.153Z,45.70
2023-08-29T15:58:18.985Z,46.70
2023-08-29T16:03:22.619Z,50.57
2023-08-29T16:08:26.823Z,51.27
2023-08-29T16:13:29.676Z,54.93
2023-08-29T16:18:32.680Z,58.34
2023-08-29T16:23:35.466Z,63.65
2023-08-29T16:28:38.236Z,62.56
2023-08-29T16:33:41.418Z,65.43
2023-08-29T16:38:44.408Z,64.97
2023-08-29T16:43:47.130Z,72.60
2023-08-29T16:48:49.810Z,69.54
2023-08-29T16:53:52.510Z,76.97
2023-08-29T16:58:55.276Z,83.31
2023-08-29T17:03:57.987Z,81.21
2023-08-29T17:09:00.149Z,84.64
2023-08-29T17:14:03.781Z,86.61
2023-08-29T17:19:07.150Z,86.89
2023-08-29T17:24:09.609Z,78.04
2023-08-29T17:29:12.257Z,65.54
2023-08-29T17:34:15.386Z,57.79
2023-08-29T17:39:17.681Z,63.83
2023-08-29T17:44:20.531Z,52.91
2023-08-29T17:49:23.435Z,50.14
2023-08-29T17:54:26.454Z,50.77
2023-08-29T17:59:29.142Z,50.00
2023-08-29T18:04:31.728Z,49.58
2023-08-29T18:09:34.009Z,50.08
2023-08-29T18:14:36.206Z,50.27
2023-08-29T18:19:38.767Z,55.10
2023-08-29T18:24:41.372Z,57.00
2023-08-29T18:29:43.572Z,53.55
2023-08-29T18:34:45.834Z,57.95
2023-08-29T18:39:48.046Z,58.78
2023-08-29T18:44:50.624Z,57.84
2023-08-29T18:49:53.611Z,60.96
2023-08-29T18:54:58.306Z,62.54
2023-08-29T19:00:00.814Z,71.71
2023-08-29T19:05:05.118Z,76.11
2023-08-29T19:10:08.753Z,79.60
2023-08-29T19:15:11.547Z,79.42
2023-08-29T19:20:14.130Z,84.01
2023-08-29T19:25:18.224Z,86.02
2023-08-29T19:30:20.974Z,90.57
2023-08-29T19:35:23.266Z,92.40
2023-08-29T19:40:26.183Z,91.53
2023-08-29T19:45:29.664Z,96.20
2023-08-29T19:50:32.360Z,99.23
2023-08-29T19:55:37.415Z,94.87
2023-08-29T20:00:40.854Z,100.00
2023-08-29T20:05:45.812Z,100.00
2023-08-29T20:10:48.463Z,100.00
2023-08-29T20:15:52.195Z,100.00
2023-08-29T20:20:54.882Z,100.00
2023-08-29T20:25:57.857Z,100.00
2023-08-29T20:31:00.433Z,100.00
2023-08-29T20:36:03.002Z,100.00
2023-08-29T20:41:05.686Z,98.94
2023-08-29T20:46:08.718Z,83.39
2023-08-29T20:51:11.075Z,76.59
2023-08-29T20:56:13.838Z,77.09
2023-08-29T21:01:16.951Z,71.00
2023-08-29T21:06:21.485Z,68.06
2023-08-29T21:11:24.509Z,69.80
2023-08-29T21:16:27.211Z,73.34
2023-08-29T21:21:29.545Z,76.74
2023-08-29T21:26:32.908Z,75.77
2023-08-29T21:31:35.675Z,83.46
2023-08-29T21:36:39.689Z,85.82
2023-08-29T21:41:42.389Z,88.31
2023-08-29T21:46:45.269Z,93.45
2023-08-29T21:51:48.685Z,92.33
2023-08-29T21:56:51.327Z,94.39
2023-08-29T22:01:54.826Z,97.31
2023-08-29T22:06:57.444Z,90.90
2023-08-29T22:12:00.131Z,100.00
2023-08-29T22:17:03.285Z,100.00
2023-08-29T22:22:05.984Z,100.00
2023-08-29T22:27:08.577Z,100.00
2023-08-29T22:32:11.724Z,100.00
2023-08-29T22:37:14.873Z,100.00
2023-08-29T22:42:18.009Z,100.00
2023-08-29T22:47:20.985Z,100.00
2023-08-29T22:52:24.740Z,100.00
2023-08-29T22:57:27.506Z,100.00
2023-08-29T23:02:29.679Z,100.00
2023-08-29T23:07:32.378Z,100.00
2023-08-29T23:12:35.199Z,100.00
2023-08-29T23:17:38.097Z,100.00
2023-08-29T23:22:40.330Z,100.00
2023-08-29T23:27:42.993Z,100.00
2023-08-29T23:32:49.617Z,100.00
2023-08-29T23:37:52.446Z,100.00
2023-08-29T23:42:54.591Z,100.00
2023-08-29T23:47:57.194Z,100.00
2023-08-29T23:53:00.528Z,100.00
2023-08-29T23:58:03.434Z,100.00
